NCAR-RAP Real-Time Weather Data

Output produced by METARs form (23 June 2018  19:37 UTC)
found at http://weather.rap.ucar.edu/surface/
 
 
RJCC 231930Z 13007KT 9999 FEW030 BKN120 BKN/// 15/12 Q0998 RMK 1CU030 5AC120 A2947